Time;durP1;ratioP1;P1;durP2;ratioP2;P2;SDS_P1;SDS_P2;PMS_P1;PMS_P2;Temp;Humidity;BMP_temperature;BMP_pressure;BME280_temperature;BME280_humidity;BME280_pressure;Samples;Min_cycle;Max_cycle;Signal;HPM_P1;HPM_P2
2023/03/10 00:01:24;;;;;;;3.70;0.70;;;;;;;11.75;63.62;98538.16;3979911;29;20047;-67
2023/03/10 00:03:27;;;;;;;1.58;0.90;;;;;;;11.77;63.55;98539.00;3975317;29;20054;-67
2023/03/10 00:05:30;;;;;;;2.03;0.80;;;;;;;11.68;64.19;98531.38;3975548;29;20077;-67
2023/03/10 00:07:33;;;;;;;0.98;0.77;;;;;;;11.69;64.00;98533.09;3979247;29;20541;-67
2023/03/10 00:09:36;;;;;;;2.10;0.80;;;;;;;11.68;64.25;98527.03;3982485;29;20590;-66
2023/03/10 00:11:39;;;;;;;2.72;0.75;;;;;;;11.74;64.12;98525.19;3984007;29;20048;-67
2023/03/10 00:13:42;;;;;;;2.47;1.00;;;;;;;11.77;63.93;98520.78;3981794;29;20405;-67
2023/03/10 00:15:45;;;;;;;1.30;0.70;;;;;;;11.79;63.90;98508.56;3983320;29;20038;-67
2023/03/10 00:17:51;;;;;;;2.17;0.75;;;;;;;11.84;64.08;98504.13;3973974;29;20103;-67
2023/03/10 00:19:53;;;;;;;1.85;1.15;;;;;;;11.83;64.47;98505.00;3976726;29;20061;-67
2023/03/10 00:21:56;;;;;;;3.38;0.93;;;;;;;11.80;64.69;98504.25;3982957;29;20061;-67
2023/03/10 00:24:00;;;;;;;1.75;1.00;;;;;;;11.76;64.18;98503.44;3981055;29;20412;-67
2023/03/10 00:26:03;;;;;;;2.55;1.20;;;;;;;11.80;64.67;98493.81;3977953;29;20091;-67
2023/03/10 00:28:06;;;;;;;1.90;0.77;;;;;;;11.76;64.78;98489.56;3979340;29;20050;-67
2023/03/10 00:30:10;;;;;;;2.60;0.80;;;;;;;11.79;64.27;98479.09;3977822;29;20141;-67
2023/03/10 00:32:12;;;;;;;1.75;0.93;;;;;;;11.80;64.28;98491.22;3979922;29;20043;-68
2023/03/10 00:34:17;;;;;;;3.25;1.13;;;;;;;11.83;64.16;98475.53;3980717;29;20063;-67
2023/03/10 00:36:22;;;;;;;2.78;0.90;;;;;;;11.74;63.84;98483.53;3969082;29;20049;-67
2023/03/10 00:38:25;;;;;;;2.90;0.93;;;;;;;11.74;64.11;98486.13;3981571;29;20043;-67
2023/03/10 00:40:28;;;;;;;1.13;0.60;;;;;;;11.81;63.94;98485.09;3964448;29;20104;-67
2023/03/10 00:42:31;;;;;;;0.80;0.52;;;;;;;11.71;64.39;98481.88;3978425;29;20042;-67
2023/03/10 00:44:34;;;;;;;1.15;0.80;;;;;;;11.66;64.40;98484.56;3985769;29;20129;-67
2023/03/10 00:46:38;;;;;;;4.90;0.80;;;;;;;11.73;64.70;98474.88;3985650;29;20585;-67
2023/03/10 00:48:41;;;;;;;1.30;0.80;;;;;;;11.69;64.74;98483.63;3970449;29;20112;-67
2023/03/10 00:50:45;;;;;;;2.72;0.82;;;;;;;11.69;64.61;98473.22;3980728;29;20308;-67
2023/03/10 00:52:50;;;;;;;1.05;0.63;;;;;;;11.65;64.33;98474.19;3963345;29;20227;-67
2023/03/10 00:54:53;;;;;;;0.77;0.60;;;;;;;11.66;64.60;98473.28;3980197;29;20043;-67
2023/03/10 00:56:56;;;;;;;2.55;0.55;;;;;;;11.65;64.58;98466.38;3982116;29;20050;-67
2023/03/10 00:59:00;;;;;;;3.03;0.90;;;;;;;11.74;64.87;98458.38;3984319;29;20042;-67
2023/03/10 01:01:04;;;;;;;1.90;0.70;;;;;;;11.77;63.93;98447.00;3978021;29;20067;-67
2023/03/10 01:03:07;;;;;;;3.00;0.70;;;;;;;11.63;64.71;98460.34;3977168;29;20402;-66
2023/03/10 01:05:11;;;;;;;3.60;1.08;;;;;;;11.65;64.34;98442.94;3981704;29;20046;-67
2023/03/10 01:07:15;;;;;;;7.05;1.80;;;;;;;11.59;64.83;98443.09;3982161;29;20049;-67
2023/03/10 01:09:18;;;;;;;2.65;0.82;;;;;;;11.58;64.33;98449.19;3983423;29;20046;-67
2023/03/10 01:11:24;;;;;;;3.00;1.15;;;;;;;11.61;64.81;98441.28;3972139;29;20051;-67
2023/03/10 01:13:27;;;;;;;1.88;0.90;;;;;;;11.60;64.64;98434.41;3972572;29;20145;-67
2023/03/10 01:15:30;;;;;;;1.20;0.77;;;;;;;11.49;64.59;98432.91;3981900;29;20069;-67
2023/03/10 01:17:32;;;;;;;1.15;0.60;;;;;;;11.55;64.70;98425.81;3980321;29;20410;-66
2023/03/10 01:19:35;;;;;;;3.50;0.98;;;;;;;11.57;64.94;98421.47;3977788;29;20043;-67
2023/03/10 01:21:39;;;;;;;1.67;0.47;;;;;;;11.53;65.10;98424.13;3967554;29;20440;-67
2023/03/10 01:23:44;;;;;;;0.80;0.60;;;;;;;11.65;64.70;98422.13;3981292;29;20039;-67
2023/03/10 01:25:47;;;;;;;2.35;1.13;;;;;;;11.64;64.46;98415.22;3980984;29;20065;-67
2023/03/10 01:27:50;;;;;;;2.47;0.80;;;;;;;11.58;64.25;98407.53;3981343;29;20042;-67
2023/03/10 01:29:53;;;;;;;1.45;0.80;;;;;;;11.49;64.61;98411.19;3963616;29;20043;-67
2023/03/10 01:31:57;;;;;;;1.27;0.60;;;;;;;11.45;65.20;98405.22;3981082;29;20062;-67
2023/03/10 01:34:00;;;;;;;2.30;0.73;;;;;;;11.47;65.47;98407.78;3981013;29;20497;-67
2023/03/10 01:36:07;;;;;;;2.17;0.73;;;;;;;11.54;65.52;98404.16;3986563;29;20039;-67
2023/03/10 01:38:10;;;;;;;3.47;0.82;;;;;;;11.51;65.82;98399.88;3981013;29;20469;-67
2023/03/10 01:40:17;;;;;;;1.55;0.68;;;;;;;11.52;65.14;98396.41;3986863;29;20141;-67
2023/03/10 01:42:20;;;;;;;3.88;0.75;;;;;;;11.40;66.23;98406.22;3968389;29;20131;-68
2023/03/10 01:44:23;;;;;;;1.95;0.63;;;;;;;11.27;66.80;98403.91;3978300;29;20551;-68
2023/03/10 01:46:41;;;;;;;3.33;0.90;;;;;;;11.32;67.32;98398.59;3989137;29;20050;-68
2023/03/10 01:48:49;;;;;;;0.88;0.75;;;;;;;11.31;66.70;98400.31;3983394;29;20039;-67
2023/03/10 01:50:55;;;;;;;2.05;0.60;;;;;;;11.39;67.66;98388.88;3978641;29;20047;-67
2023/03/10 01:52:59;;;;;;;0.85;0.57;;;;;;;11.34;67.20;98376.84;3981732;29;20227;-67
2023/03/10 01:55:09;;;;;;;1.30;0.60;;;;;;;11.23;68.23;98383.16;3979930;29;20520;-68
2023/03/10 01:57:16;;;;;;;1.40;0.45;;;;;;;11.22;68.46;98381.47;3986825;29;20481;-67
2023/03/10 01:59:21;;;;;;;1.20;0.50;;;;;;;11.24;68.24;98369.28;3990557;29;20053;-68
2023/03/10 02:01:24;;;;;;;;;;;;;;;11.29;68.66;98370.91;3990782;29;20042;-67
2023/03/10 02:03:31;;;;;;;1.80;0.50;;;;;;;11.17;68.53;98376.38;3990303;29;19968;-67
2023/03/10 02:05:36;;;;;;;0.93;0.70;;;;;;;11.16;69.14;98369.47;3990067;29;20107;-67
2023/03/10 02:07:40;;;;;;;1.85;0.57;;;;;;;11.32;68.48;98364.78;3971906;29;20130;-67
2023/03/10 02:09:46;;;;;;;1.45;0.70;;;;;;;11.21;68.75;98359.78;3973572;29;20134;-68
2023/03/10 02:11:49;;;;;;;1.02;0.70;;;;;;;11.17;69.09;98364.22;4006061;29;20054;-68
2023/03/10 02:13:55;;;;;;;0.65;0.40;;;;;;;11.13;69.54;98361.72;3990356;29;20111;-67
2023/03/10 02:15:57;;;;;;;0.75;0.60;;;;;;;11.09;70.14;98360.94;3989207;29;20035;-68
2023/03/10 02:18:03;;;;;;;1.63;0.75;;;;;;;11.11;70.54;98348.75;3983324;29;20049;-68
2023/03/10 02:20:19;;;;;;;0.52;0.50;;;;;;;11.12;70.15;98345.25;3964871;29;20046;-68
2023/03/10 02:22:22;;;;;;;2.05;0.70;;;;;;;11.05;70.15;98346.28;3988533;29;20054;-67
2023/03/10 02:24:30;;;;;;;0.63;0.50;;;;;;;11.03;70.30;98349.81;3979105;29;20047;-66
2023/03/10 02:26:41;;;;;;;1.20;0.60;;;;;;;11.06;69.91;98354.94;3985429;29;20102;-67
2023/03/10 02:28:47;;;;;;;1.25;0.70;;;;;;;11.03;70.52;98344.63;3970165;29;20456;-66
2023/03/10 02:30:53;;;;;;;2.80;0.70;;;;;;;11.07;70.39;98347.13;3957667;29;20074;-66
2023/03/10 02:33:01;;;;;;;0.85;0.60;;;;;;;11.10;70.49;98344.44;3982991;29;20145;-66
2023/03/10 02:35:05;;;;;;;0.85;0.60;;;;;;;10.99;70.47;98336.00;3962536;29;20045;-67
2023/03/10 02:37:24;;;;;;;0.43;0.43;;;;;;;10.95;71.18;98339.56;3976445;29;20086;-66
2023/03/10 02:39:29;;;;;;;0.80;0.47;;;;;;;11.00;70.38;98330.78;3986663;29;20038;-66
2023/03/10 02:41:36;;;;;;;1.08;0.70;;;;;;;10.93;70.42;98328.34;3981451;29;20047;-67
2023/03/10 02:43:40;;;;;;;1.38;0.80;;;;;;;11.06;70.93;98321.16;3984392;29;20085;-67
2023/03/10 02:45:57;;;;;;;1.70;0.73;;;;;;;11.01;70.76;98318.66;3981559;29;20046;-67
2023/03/10 02:48:00;;;;;;;1.05;0.50;;;;;;;11.06;69.87;98322.00;3978428;29;20074;-67
2023/03/10 02:50:05;;;;;;;1.92;0.77;;;;;;;11.06;70.70;98318.53;3991967;24;20050;-67
2023/03/10 02:52:13;;;;;;;1.45;0.88;;;;;;;11.03;70.98;98311.66;3986194;29;20042;-67
2023/03/10 02:54:17;;;;;;;0.40;0.40;;;;;;;10.99;70.62;98304.81;3978175;29;20047;-67
2023/03/10 02:56:20;;;;;;;0.98;0.75;;;;;;;11.00;70.87;98314.34;3982540;29;20148;-67
2023/03/10 02:58:26;;;;;;;1.95;0.50;;;;;;;11.05;69.92;98311.63;3986103;29;20150;-67
2023/03/10 03:00:30;;;;;;;2.03;0.80;;;;;;;11.03;70.57;98296.06;3981423;29;20055;-67
2023/03/10 03:02:34;;;;;;;3.38;1.08;;;;;;;11.02;70.31;98296.94;3965693;29;20100;-67
2023/03/10 03:04:37;;;;;;;1.92;0.88;;;;;;;11.05;69.92;98293.44;3987264;29;20050;-66
2023/03/10 03:06:40;;;;;;;3.58;0.70;;;;;;;11.07;69.73;98295.09;3982017;29;20095;-66
2023/03/10 03:08:43;;;;;;;2.22;0.80;;;;;;;11.00;70.44;98298.75;3982535;29;20045;-67
2023/03/10 03:10:50;;;;;;;3.58;0.82;;;;;;;10.93;70.35;98287.59;3960699;29;20059;-67
2023/03/10 03:12:55;;;;;;;2.67;0.90;;;;;;;10.90;70.49;98290.28;3982672;29;20070;-67
2023/03/10 03:14:58;;;;;;;1.05;0.70;;;;;;;10.95;70.56;98296.25;3965887;29;20043;-67
2023/03/10 03:17:01;;;;;;;2.25;0.80;;;;;;;10.86;70.75;98290.38;3984251;29;20149;-67
2023/03/10 03:19:06;;;;;;;2.45;0.90;;;;;;;10.96;70.76;98300.53;3979817;29;20035;-67
2023/03/10 03:21:11;;;;;;;3.25;0.98;;;;;;;10.92;71.09;98301.50;3977536;29;20147;-67
2023/03/10 03:23:15;;;;;;;2.35;0.73;;;;;;;10.93;70.58;98294.56;3982493;29;20066;-67
2023/03/10 03:25:19;;;;;;;2.05;0.80;;;;;;;10.89;70.33;98295.50;3983268;29;20052;-67
2023/03/10 03:27:23;;;;;;;1.85;0.93;;;;;;;10.87;71.10;98292.09;3983915;29;20050;-67
2023/03/10 03:29:26;;;;;;;3.28;1.30;;;;;;;10.94;70.57;98293.69;3966232;29;20096;-66
2023/03/10 03:31:29;;;;;;;3.72;1.02;;;;;;;10.91;70.96;98291.16;3977472;29;20521;-67
2023/03/10 03:33:44;;;;;;;6.93;1.57;;;;;;;11.01;70.46;98292.66;3977335;29;20116;-67
2023/03/10 03:35:48;;;;;;;2.75;1.05;;;;;;;10.94;70.78;98296.28;3960883;29;20301;-67
2023/03/10 03:37:53;;;;;;;2.05;0.95;;;;;;;10.88;71.81;98289.47;3984561;29;20050;-67
2023/03/10 03:39:58;;;;;;;4.45;1.38;;;;;;;10.93;71.67;98277.22;3982731;29;20038;-67
2023/03/10 03:42:01;;;;;;;2.65;1.35;;;;;;;10.81;72.36;98278.34;3976921;29;20039;-67
2023/03/10 03:44:11;;;;;;;3.53;1.17;;;;;;;10.89;71.69;98267.75;3980096;29;20098;-67
2023/03/10 03:46:14;;;;;;;2.25;1.17;;;;;;;10.91;72.21;98278.16;3985953;29;20035;-67
2023/03/10 03:48:17;;;;;;;2.72;1.15;;;;;;;10.88;72.55;98278.19;3982299;29;20066;-67
2023/03/10 03:50:25;;;;;;;2.95;1.40;;;;;;;10.83;72.60;98271.38;3955376;29;20054;-66
2023/03/10 03:52:33;;;;;;;2.83;1.10;;;;;;;10.83;72.45;98270.50;3987510;29;20046;-66
2023/03/10 03:54:36;;;;;;;;;;;;;;;10.88;72.20;98275.59;3979133;29;20497;-66
2023/03/10 03:56:39;;;;;;;2.13;1.10;;;;;;;10.86;72.64;98265.22;3983085;29;20002;-66
2023/03/10 03:58:44;;;;;;;3.88;1.00;;;;;;;10.79;72.74;98274.94;3986968;29;20125;-67
2023/03/10 04:00:47;;;;;;;2.40;0.93;;;;;;;10.79;72.65;98272.34;3984875;29;20042;-66
2023/03/10 04:02:53;;;;;;;2.38;0.95;;;;;;;10.64;73.12;98278.72;3969145;29;20047;-66
2023/03/10 04:04:56;;;;;;;3.13;1.20;;;;;;;10.63;74.22;98273.53;3978870;29;20068;-66
2023/03/10 04:06:59;;;;;;;4.20;1.50;;;;;;;10.66;74.14;98283.88;3976140;29;20441;-66
2023/03/10 04:09:04;;;;;;;5.63;1.52;;;;;;;10.58;74.28;98275.38;3986931;29;20042;-67
2023/03/10 04:11:08;;;;;;;6.15;1.48;;;;;;;10.58;74.72;98265.00;3985831;29;20440;-66
2023/03/10 04:13:14;;;;;;;3.47;1.25;;;;;;;10.62;74.89;98256.25;3978153;29;20054;-66
2023/03/10 04:15:17;;;;;;;5.18;1.95;;;;;;;10.61;75.06;98259.72;3981767;29;20059;-67
2023/03/10 04:17:20;;;;;;;2.92;1.20;;;;;;;10.54;75.10;98271.13;3968808;29;20086;-66
2023/03/10 04:19:23;;;;;;;2.78;1.15;;;;;;;10.43;75.32;98261.81;3975118;29;20093;-66
2023/03/10 04:21:30;;;;;;;3.25;1.52;;;;;;;10.47;76.04;98271.28;3982219;29;20576;-66
2023/03/10 04:23:34;;;;;;;4.80;1.23;;;;;;;10.43;75.89;98261.81;3986377;29;20039;-67
2023/03/10 04:25:40;;;;;;;2.83;1.17;;;;;;;10.36;75.36;98262.84;3961319;29;20514;-66
2023/03/10 04:27:43;;;;;;;4.88;1.10;;;;;;;10.36;76.05;98255.03;3977555;29;20046;-67
2023/03/10 04:29:46;;;;;;;2.70;1.30;;;;;;;10.36;75.88;98269.78;3996410;29;20408;-67
2023/03/10 04:31:49;;;;;;;3.75;1.30;;;;;;;10.27;76.04;98261.25;3986609;29;20143;-66
2023/03/10 04:34:08;;;;;;;3.33;1.27;;;;;;;10.29;75.80;98248.22;3989225;29;20047;-67
2023/03/10 04:36:12;;;;;;;;;;;;;;;10.25;75.59;98254.38;3972367;29;20050;-67
2023/03/10 04:38:16;;;;;;;3.33;1.17;;;;;;;10.31;75.11;98251.66;3988267;29;20426;-67
2023/03/10 04:40:20;;;;;;;3.30;1.50;;;;;;;10.27;75.00;98245.66;3988370;29;20063;-67
2023/03/10 04:42:26;;;;;;;2.88;1.00;;;;;;;10.25;75.03;98251.78;3970315;29;20111;-67
2023/03/10 04:44:30;;;;;;;4.35;1.25;;;;;;;10.25;75.45;98255.25;3986339;29;20049;-66
2023/03/10 04:46:36;;;;;;;3.08;1.08;;;;;;;10.27;74.71;98252.63;3987344;29;20042;-66
2023/03/10 04:48:39;;;;;;;1.58;0.90;;;;;;;10.30;74.73;98244.75;3988309;29;20050;-66
2023/03/10 04:50:42;;;;;;;2.72;1.02;;;;;;;10.28;74.88;98247.38;3989988;29;20104;-66
2023/03/10 04:52:48;;;;;;;;;;;;;;;10.19;74.87;98259.69;3986291;29;20086;-66
2023/03/10 04:54:52;;;;;;;3.53;1.20;;;;;;;10.17;75.26;98248.50;3990259;29;19939;-66
2023/03/10 04:56:55;;;;;;;1.40;0.93;;;;;;;10.13;75.37;98251.16;3988212;29;20050;-65
2023/03/10 04:58:59;;;;;;;1.35;0.90;;;;;;;10.18;74.61;98245.00;3981158;29;20042;-65
2023/03/10 05:01:09;;;;;;;4.43;1.33;;;;;;;10.13;74.50;98239.91;3956750;29;20113;-65
2023/03/10 05:03:16;;;;;;;2.00;1.08;;;;;;;10.18;75.25;98247.59;3981530;29;20122;-66
2023/03/10 05:05:19;;;;;;;3.47;1.25;;;;;;;10.18;74.65;98250.19;3987077;29;20092;-66
2023/03/10 05:07:22;;;;;;;4.93;1.20;;;;;;;10.16;75.24;98245.03;3977367;29;20051;-66
2023/03/10 05:09:26;;;;;;;3.10;0.95;;;;;;;10.14;74.63;98242.47;3985243;29;20060;-66
2023/03/10 05:11:29;;;;;;;3.42;1.13;;;;;;;10.14;75.26;98245.06;3976471;29;20104;-65
2023/03/10 05:13:32;;;;;;;3.88;1.70;;;;;;;10.12;75.59;98236.44;3963625;29;20442;-66
2023/03/10 05:15:36;;;;;;;6.68;1.60;;;;;;;10.17;74.90;98233.75;3979601;29;20099;-66
2023/03/10 05:17:40;;;;;;;4.53;1.30;;;;;;;10.22;75.29;98231.06;3983321;29;20045;-66
2023/03/10 05:19:43;;;;;;;2.13;1.00;;;;;;;10.20;74.65;98222.47;3979260;29;20039;-66
2023/03/10 05:21:47;;;;;;;3.37;1.13;;;;;;;10.22;74.63;98221.56;3967317;29;20047;-66
2023/03/10 05:23:50;;;;;;;4.35;1.10;;;;;;;10.20;75.15;98217.28;3971858;29;20046;-66
2023/03/10 05:25:54;;;;;;;2.25;1.23;;;;;;;10.19;75.26;98211.22;3986673;29;20585;-73
2023/03/10 05:27:59;;;;;;;2.80;1.15;;;;;;;10.23;75.21;98210.25;3985422;29;20115;-73
2023/03/10 05:30:07;;;;;;;2.75;1.00;;;;;;;10.29;74.40;98211.88;3977362;29;20046;-73
2023/03/10 05:32:13;;;;;;;4.90;1.52;;;;;;;10.33;74.28;98204.91;3985360;29;20080;-73
2023/03/10 05:34:18;;;;;;;3.50;1.33;;;;;;;10.35;74.10;98191.00;3989954;29;20042;-73
2023/03/10 05:36:23;;;;;;;2.78;1.23;;;;;;;10.35;74.22;98193.59;3988232;29;20117;-73
2023/03/10 05:38:27;;;;;;;2.05;0.82;;;;;;;10.31;74.01;98186.75;3990289;29;20042;-73
2023/03/10 05:40:30;;;;;;;4.13;1.42;;;;;;;10.32;73.94;98196.22;3989789;29;20054;-74
2023/03/10 05:42:33;;;;;;;6.28;1.50;;;;;;;10.33;74.67;98197.09;3989888;29;20047;-73
2023/03/10 05:44:36;;;;;;;2.50;1.20;;;;;;;10.35;73.70;98188.41;3988867;29;20129;-74
2023/03/10 05:46:40;;;;;;;2.78;1.00;;;;;;;10.40;74.13;98186.56;3990009;29;20420;-73
2023/03/10 05:48:45;;;;;;;4.53;1.40;;;;;;;10.36;73.50;98186.69;3990889;29;20061;-73
2023/03/10 05:50:57;;;;;;;3.38;1.40;;;;;;;10.34;73.26;98189.31;3991420;29;20043;-73
2023/03/10 05:53:00;;;;;;;2.10;0.90;;;;;;;10.33;73.22;98184.97;3988840;29;20042;-73
2023/03/10 05:55:03;;;;;;;3.97;1.33;;;;;;;10.38;73.21;98184.88;3975006;29;20116;-73
2023/03/10 05:57:06;;;;;;;4.57;1.20;;;;;;;10.40;73.17;98177.94;3989946;29;20066;-73
2023/03/10 05:59:09;;;;;;;3.28;1.20;;;;;;;10.38;73.63;98175.38;3989969;29;20034;-73
2023/03/10 06:01:13;;;;;;;2.85;1.13;;;;;;;10.41;73.50;98175.31;3988839;29;20581;-73
2023/03/10 06:03:16;;;;;;;5.68;1.60;;;;;;;10.43;72.81;98173.50;3991046;29;20042;-73
2023/03/10 06:05:20;;;;;;;2.28;1.35;;;;;;;10.45;72.83;98169.16;3989663;29;20120;-73
2023/03/10 06:07:23;;;;;;;3.95;1.20;;;;;;;10.50;73.05;98168.16;3974963;29;20050;-73
2023/03/10 06:09:26;;;;;;;6.90;1.60;;;;;;;10.48;73.62;98157.81;3988649;29;20042;-74
2023/03/10 06:11:29;;;;;;;4.38;1.77;;;;;;;10.43;72.88;98157.94;3990201;29;20046;-73
2023/03/10 06:13:32;;;;;;;4.35;1.25;;;;;;;10.48;72.59;98163.88;3986510;29;20497;-73
2023/03/10 06:15:35;;;;;;;3.78;1.05;;;;;;;10.41;72.76;98151.94;3990484;29;20053;-73
2023/03/10 06:17:38;;;;;;;4.05;1.83;;;;;;;10.46;73.18;98150.06;3990054;29;20042;-73
2023/03/10 06:19:41;;;;;;;5.93;1.10;;;;;;;10.38;72.87;98157.19;3990663;29;20450;-73
2023/03/10 06:21:45;;;;;;;3.85;1.33;;;;;;;10.43;72.54;98155.31;3987255;29;20055;-73
2023/03/10 06:23:48;;;;;;;5.18;1.80;;;;;;;10.34;73.45;98155.53;3989776;29;20505;-73
2023/03/10 06:25:58;;;;;;;5.82;1.30;;;;;;;10.35;73.40;98167.63;3988893;29;20443;-74
2023/03/10 06:28:00;;;;;;;5.22;1.10;;;;;;;10.41;72.60;98164.03;3989629;29;20046;-73
2023/03/10 06:30:04;;;;;;;3.05;1.38;;;;;;;10.48;72.70;98150.03;3990540;29;20129;-73
2023/03/10 06:32:07;;;;;;;3.95;1.15;;;;;;;10.47;72.78;98151.78;3990210;29;20472;-73
2023/03/10 06:34:11;;;;;;;3.40;1.52;;;;;;;10.58;72.67;98155.88;3999934;29;20058;-74
2023/03/10 06:36:15;;;;;;;6.43;1.55;;;;;;;10.60;72.56;98159.28;3991193;29;20049;-73
2023/03/10 06:38:20;;;;;;;4.97;1.85;;;;;;;10.61;72.29;98159.25;3990604;29;20062;-73
2023/03/10 06:40:23;;;;;;;3.60;1.50;;;;;;;10.65;71.79;98162.63;3990318;29;20569;-73
2023/03/10 06:42:26;;;;;;;4.22;1.73;;;;;;;10.65;72.02;98162.63;3990039;29;20523;-74
2023/03/10 06:44:29;;;;;;;7.18;1.55;;;;;;;10.62;71.71;98157.53;3989276;29;20045;-75
2023/03/10 06:46:31;;;;;;;4.45;1.42;;;;;;;10.68;72.31;98151.31;3989333;29;20094;-75
2023/03/10 06:48:35;;;;;;;6.38;1.92;;;;;;;10.69;71.46;98146.09;3988234;29;20107;-74
2023/03/10 06:50:41;;;;;;;3.33;1.50;;;;;;;10.73;71.98;98149.47;3987745;29;20039;-75
2023/03/10 06:52:44;;;;;;;5.05;1.60;;;;;;;10.74;71.17;98144.22;3990524;29;20050;-74
2023/03/10 06:54:48;;;;;;;6.65;1.80;;;;;;;10.76;71.38;98147.66;3989970;29;20046;-74
2023/03/10 06:56:51;;;;;;;4.32;1.48;;;;;;;10.87;71.60;98146.53;3976879;29;20139;-75
2023/03/10 06:58:54;;;;;;;5.65;1.40;;;;;;;10.84;71.95;98152.66;3989791;29;20133;-74
2023/03/10 07:00:57;;;;;;;4.68;1.70;;;;;;;10.86;71.76;98145.66;3990108;29;20046;-75
2023/03/10 07:03:00;;;;;;;4.70;1.60;;;;;;;10.87;71.59;98147.38;3990231;29;20095;-75
2023/03/10 07:05:04;;;;;;;7.32;1.88;;;;;;;10.76;71.58;98146.78;3987865;29;20043;-74
2023/03/10 07:07:07;;;;;;;7.72;1.80;;;;;;;10.82;71.58;98144.06;3990176;29;20038;-75
2023/03/10 07:09:10;;;;;;;3.85;1.30;;;;;;;10.96;71.40;98144.53;3990471;29;20521;-75
2023/03/10 07:11:14;;;;;;;3.47;1.38;;;;;;;10.99;70.87;98144.50;3989040;29;20079;-75
2023/03/10 07:13:17;;;;;;;4.45;1.58;;;;;;;11.06;70.49;98147.78;3989721;29;20398;-74
2023/03/10 07:15:20;;;;;;;4.72;1.60;;;;;;;11.04;71.29;98148.69;3982483;29;20050;-74
2023/03/10 07:17:23;;;;;;;8.60;2.08;;;;;;;11.11;70.17;98156.34;3978468;29;20107;-75
2023/03/10 07:19:26;;;;;;;4.55;1.50;;;;;;;11.18;70.53;98152.69;3984163;29;20083;-75
2023/03/10 07:21:29;;;;;;;4.65;1.83;;;;;;;11.09;70.95;98152.91;3986764;29;20458;-75
2023/03/10 07:23:32;;;;;;;3.55;1.20;;;;;;;11.12;70.46;98152.81;3984477;29;20042;-75
2023/03/10 07:25:36;;;;;;;7.30;1.37;;;;;;;11.17;70.48;98150.97;3980071;29;20125;-75
2023/03/10 07:27:40;;;;;;;4.78;1.55;;;;;;;11.25;71.03;98157.72;3985527;29;20820;-75
2023/03/10 07:29:43;;;;;;;5.45;2.08;;;;;;;11.37;70.49;98146.16;3989102;29;20042;-75
2023/03/10 07:31:46;;;;;;;8.30;1.40;;;;;;;11.28;69.46;98152.44;3988270;29;20058;-75
2023/03/10 07:33:49;;;;;;;4.45;1.67;;;;;;;11.12;69.81;98152.81;3981469;29;20053;-74
2023/03/10 07:35:52;;;;;;;5.68;1.90;;;;;;;11.12;69.89;98159.78;3972858;29;20038;-74
2023/03/10 07:37:55;;;;;;;5.45;1.67;;;;;;;11.19;70.45;98163.94;4003669;29;20041;-74
2023/03/10 07:39:57;;;;;;;5.38;1.55;;;;;;;11.21;70.11;98169.94;3985739;29;20102;-74
2023/03/10 07:42:00;;;;;;;7.05;1.77;;;;;;;11.09;69.25;98170.25;3986117;29;20042;-74
2023/03/10 07:44:06;;;;;;;5.68;1.77;;;;;;;11.12;69.73;98163.22;3987970;29;20154;-74
2023/03/10 07:46:11;;;;;;;5.82;1.40;;;;;;;11.06;69.63;98158.19;3988575;29;20043;-74
2023/03/10 07:48:14;;;;;;;6.03;1.60;;;;;;;11.02;69.75;98155.69;3989916;29;20138;-74
2023/03/10 07:50:18;;;;;;;7.65;1.27;;;;;;;11.03;69.89;98142.66;3988012;29;20111;-74
2023/03/10 07:52:20;;;;;;;6.72;1.60;;;;;;;10.83;70.41;98151.81;3988919;29;20046;-74
2023/03/10 07:54:23;;;;;;;6.10;1.60;;;;;;;10.91;70.12;98166.38;3984918;29;20046;-74
2023/03/10 07:56:26;;;;;;;4.35;1.20;;;;;;;10.80;70.20;98169.22;3988447;29;20462;-75
2023/03/10 07:58:29;;;;;;;5.07;1.52;;;;;;;10.75;70.92;98169.34;3988435;29;20429;-74
2023/03/10 08:00:33;;;;;;;5.18;1.30;;;;;;;10.82;71.54;98173.50;3988681;29;20512;-75
2023/03/10 08:02:36;;;;;;;4.72;1.77;;;;;;;10.74;71.52;98175.41;3989545;29;20087;-74
2023/03/10 08:04:40;;;;;;;6.45;1.70;;;;;;;10.88;72.13;98180.28;3984274;29;20085;-74
2023/03/10 08:06:43;;;;;;;6.13;1.83;;;;;;;10.87;72.12;98182.94;3989699;29;20057;-74
2023/03/10 08:08:46;;;;;;;6.88;1.77;;;;;;;10.67;72.49;98189.44;3988581;29;20114;-75
2023/03/10 08:10:49;;;;;;;4.05;1.40;;;;;;;10.35;71.92;98193.59;3982067;29;20051;-75
2023/03/10 08:12:53;;;;;;;6.05;1.88;;;;;;;10.17;73.41;98189.63;3976711;29;20047;-75
2023/03/10 08:14:56;;;;;;;6.97;1.65;;;;;;;10.01;74.02;98183.88;3980656;29;20112;-76
2023/03/10 08:17:01;;;;;;;4.40;1.52;;;;;;;9.93;75.03;98188.41;3981959;29;20049;-76
2023/03/10 08:19:04;;;;;;;5.05;1.25;;;;;;;10.00;74.82;98195.16;3988491;29;20046;-76
2023/03/10 08:21:07;;;;;;;4.07;1.40;;;;;;;9.97;75.36;98197.81;3981999;29;20141;-76
2023/03/10 08:23:10;;;;;;;6.88;1.58;;;;;;;9.97;75.30;98210.78;3988720;29;20536;-76
2023/03/10 08:25:13;;;;;;;8.80;2.72;;;;;;;9.91;75.71;98209.16;3988212;29;20412;-76
2023/03/10 08:27:16;;;;;;;5.97;1.90;;;;;;;9.91;75.93;98227.31;3989602;29;20050;-76
2023/03/10 08:29:19;;;;;;;7.60;1.73;;;;;;;9.88;75.58;98231.72;3983297;29;20497;-76
2023/03/10 08:31:22;;;;;;;13.05;1.80;;;;;;;9.84;74.62;98230.06;3983911;29;20125;-76
2023/03/10 08:33:27;;;;;;;6.40;1.85;;;;;;;9.97;74.17;98231.56;3980332;29;20114;-76
2023/03/10 08:35:30;;;;;;;4.45;1.27;;;;;;;9.98;72.10;98229.81;3986693;29;20086;-76
2023/03/10 08:37:33;;;;;;;6.95;2.10;;;;;;;9.95;71.90;98234.19;3980361;29;20030;-75
2023/03/10 08:39:37;;;;;;;9.55;2.70;;;;;;;10.03;71.49;98231.44;3968559;29;20058;-76
2023/03/10 08:41:44;;;;;;;8.73;2.03;;;;;;;10.17;71.60;98223.38;3980868;29;20707;-76
2023/03/10 08:43:50;;;;;;;5.95;1.73;;;;;;;10.16;71.00;98234.63;3971116;29;20513;-75
2023/03/10 08:45:53;;;;;;;3.53;1.38;;;;;;;10.28;71.26;98231.81;3984264;29;20074;-76
2023/03/10 08:47:56;;;;;;;5.68;1.48;;;;;;;10.40;71.98;98235.06;3985894;29;20047;-75
2023/03/10 08:50:00;;;;;;;3.22;1.08;;;;;;;10.51;71.74;98234.84;3982565;29;20042;-76
2023/03/10 08:52:03;;;;;;;5.22;1.73;;;;;;;10.55;71.83;98236.47;3982633;24;20343;-64
2023/03/10 08:54:07;;;;;;;3.80;1.17;;;;;;;10.54;70.14;98232.16;3975185;29;20046;-64
2023/03/10 08:56:10;;;;;;;5.68;1.30;;;;;;;10.44;71.26;98234.97;3974128;29;20042;-76
2023/03/10 08:58:13;;;;;;;7.43;1.52;;;;;;;10.54;71.13;98243.44;3974514;29;20049;-72
2023/03/10 09:00:17;;;;;;;7.90;2.55;;;;;;;10.55;69.94;98236.47;3973414;29;20059;-71
2023/03/10 09:02:20;;;;;;;4.57;1.42;;;;;;;10.41;70.01;98232.44;3974886;29;20062;-71
2023/03/10 09:04:23;;;;;;;7.85;1.70;;;;;;;10.44;70.10;98240.16;3974180;29;20512;-73
2023/03/10 09:06:28;;;;;;;5.30;1.40;;;;;;;10.53;69.21;98235.66;3974820;29;20047;-75
2023/03/10 09:08:31;;;;;;;6.10;1.40;;;;;;;10.66;69.03;98242.31;3973325;29;20051;-69
2023/03/10 09:10:34;;;;;;;5.38;1.42;;;;;;;10.75;67.71;98249.91;3974508;29;20441;-69
2023/03/10 09:12:41;;;;;;;6.28;1.60;;;;;;;10.99;67.86;98240.69;3977808;29;20043;-68
2023/03/10 09:14:44;;;;;;;9.25;1.88;;;;;;;11.12;67.18;98243.00;3975800;29;20513;-70
2023/03/10 09:16:47;;;;;;;2.10;0.95;;;;;;;11.18;67.60;98240.25;3977057;29;20042;-70
2023/03/10 09:18:50;;;;;;;5.45;1.40;;;;;;;11.37;67.32;98237.19;3968248;29;20457;-70
2023/03/10 09:20:53;;;;;;;8.23;1.67;;;;;;;11.41;67.59;98246.63;3973675;29;20070;-70
2023/03/10 09:22:57;;;;;;;6.88;1.23;;;;;;;11.51;67.19;98241.16;3975701;29;20410;-70
2023/03/10 09:25:00;;;;;;;5.88;1.23;;;;;;;11.67;65.99;98238.16;3982008;29;20053;-71
2023/03/10 09:27:03;;;;;;;3.42;0.90;;;;;;;11.93;66.09;98239.19;3979320;29;20050;-70
2023/03/10 09:29:05;;;;;;;5.28;1.20;;;;;;;12.05;65.91;98236.31;3976442;29;20048;-70
2023/03/10 09:31:11;;;;;;;5.90;1.35;;;;;;;12.17;66.36;98243.78;3975801;29;20046;-70
2023/03/10 09:33:19;;;;;;;3.35;1.02;;;;;;;11.95;65.16;98240.06;3983702;29;20047;-71
2023/03/10 09:35:22;;;;;;;4.60;1.10;;;;;;;11.76;65.93;98240.50;3982993;29;20463;-71
2023/03/10 09:37:25;;;;;;;5.88;2.00;;;;;;;11.56;66.57;98238.44;3974319;29;20052;-71
2023/03/10 09:39:29;;;;;;;3.25;1.10;;;;;;;11.62;66.95;98242.63;3979455;29;20050;-71
2023/03/10 09:42:05;;;;;;;4.85;1.20;;;;;;;11.33;66.94;98244.19;3973730;29;20055;-72
2023/03/10 09:44:23;;;;;;;7.43;1.50;;;;;;;11.38;67.33;98247.56;3965164;29;20059;-72
2023/03/10 09:46:32;;;;;;;3.58;1.08;;;;;;;11.18;67.80;98246.31;3984910;29;20142;-72